Time,TemperatureF,DewpointF,PressureIn,WindDirection,WindDirectionDegrees,WindSpeedMPH,WindSpeedGustMPH,Humidity,HourlyPrecipIn,Conditions,Clouds,dailyrainin,SoftwareType,DateUTC
2013-05-01 00:02:00,68.0,53.0,-100.00,SE,130,2.0,3.0,58,0.00,,,-99.99,,2013-05-01 05:02:00,
2013-05-01 00:11:00,67.0,53.0,-100.00,SE,140,2.0,3.0,60,0.00,,,-99.99,,2013-05-01 05:11:00,
2013-05-01 00:21:00,66.0,54.0,-100.00,ESE,115,2.0,3.0,64,0.00,,,-99.99,,2013-05-01 05:21:00,
2013-05-01 00:32:00,66.0,54.0,-100.00,ESE,110,2.0,3.0,66,0.00,,,-99.99,,2013-05-01 05:32:00,
2013-05-01 00:41:00,65.0,54.0,-100.00,ESE,110,2.0,3.0,66,0.00,,,-99.99,,2013-05-01 05:41:00,
2013-05-01 00:52:00,65.0,54.0,-100.00,East,95,5.0,6.0,68,0.00,,,-99.99,,2013-05-01 05:52:00,
2013-05-01 01:02:00,65.0,54.0,-100.00,East,100,4.0,6.0,68,0.00,,,-99.99,,2013-05-01 06:02:00,
2013-05-01 01:11:00,65.0,55.0,-100.00,SE,125,4.0,4.0,68,0.00,,,-99.99,,2013-05-01 06:11:00,
2013-05-01 01:22:00,65.0,54.0,-100.00,SE,130,3.0,4.0,68,0.00,,,-99.99,,2013-05-01 06:22:00,
2013-05-01 01:32:00,65.0,54.0,-100.00,ESE,110,4.0,6.0,69,0.00,,,-99.99,,2013-05-01 06:32:00,
2013-05-01 01:42:00,65.0,54.0,-100.00,ESE,115,4.0,6.0,69,0.00,,,-99.99,,2013-05-01 06:42:00,
2013-05-01 01:51:00,65.0,54.0,-100.00,SE,135,4.0,6.0,68,0.00,,,-99.99,,2013-05-01 06:51:00,
2013-05-01 02:01:00,64.0,53.0,-100.00,SE,130,4.0,6.0,69,0.00,,,-99.99,,2013-05-01 07:01:00,
2013-05-01 02:11:00,63.0,54.0,-100.00,ESE,120,6.0,9.0,70,0.00,,,-99.99,,2013-05-01 07:11:00,
2013-05-01 02:21:00,64.0,53.0,-100.00,SE,135,5.0,9.0,68,0.00,,,-99.99,,2013-05-01 07:21:00,
2013-05-01 02:32:00,66.0,52.0,-100.00,SSE,150,7.0,10.0,61,0.00,,,-99.99,,2013-05-01 07:32:00,
2013-05-01 02:41:00,66.0,52.0,-100.00,South,170,3.0,10.0,61,0.00,,,-99.99,,2013-05-01 07:41:00,
2013-05-01 02:52:00,67.0,52.0,-100.00,South,170,3.0,10.0,59,0.00,,,-99.99,,2013-05-01 07:52:00,
2013-05-01 03:01:00,67.0,52.0,-100.00,South,170,6.0,8.0,59,0.00,,,-99.99,,2013-05-01 08:01:00,
2013-05-01 03:11:00,66.0,52.0,-100.00,SSE,160,4.0,7.0,59,0.00,,,-99.99,,2013-05-01 08:11:00,
2013-05-01 03:21:00,66.0,51.0,-100.00,SSE,160,4.0,7.0,60,0.00,,,-99.99,,2013-05-01 08:21:00,
2013-05-01 03:32:00,65.0,51.0,-100.00,SE,145,3.0,6.0,61,0.00,,,-99.99,,2013-05-01 08:32:00,
2013-05-01 03:42:00,65.0,51.0,-100.00,ESE,110,3.0,6.0,61,0.00,,,-99.99,,2013-05-01 08:42:00,
2013-05-01 03:52:00,65.0,51.0,-100.00,SSE,150,2.0,6.0,61,0.00,,,-99.99,,2013-05-01 08:52:00,
2013-05-01 04:01:00,64.0,51.0,-100.00,SSE,165,2.0,5.0,62,0.00,,,-99.99,,2013-05-01 09:01:00,
2013-05-01 04:11:00,62.0,51.0,-100.00,NNW,330,5.0,7.0,66,0.00,,,-99.99,,2013-05-01 09:11:00,
2013-05-01 04:21:00,62.0,51.0,-100.00,NNW,330,4.0,6.0,68,0.00,,,-99.99,,2013-05-01 09:21:00,
2013-05-01 04:33:00,62.0,52.0,-100.00,NW,315,6.0,9.0,68,0.00,,,-99.99,,2013-05-01 09:33:00,
2013-05-01 04:42:00,61.0,52.0,-100.00,NW,305,6.0,9.0,70,0.00,,,-99.99,,2013-05-01 09:42:00,
2013-05-01 04:52:00,59.0,52.0,-100.00,WNW,295,6.0,7.0,76,0.00,,,-99.99,,2013-05-01 09:52:00,
2013-05-01 05:02:00,59.0,52.0,-100.00,West,280,4.0,7.0,78,0.00,,,-99.99,,2013-05-01 10:02:00,
2013-05-01 05:12:00,58.0,52.0,-100.00,WNW,295,5.0,6.0,80,0.00,,,-99.99,,2013-05-01 10:12:00,
2013-05-01 05:22:00,57.0,52.0,-100.00,WNW,290,4.0,6.0,82,0.00,,,-99.99,,2013-05-01 10:22:00,
2013-05-01 05:33:00,56.0,52.0,-100.00,NW,310,9.0,13.0,84,0.00,,,-99.99,,2013-05-01 10:33:00,
2013-05-01 05:42:00,56.0,52.0,-100.00,NW,305,7.0,11.0,84,0.00,,,-99.99,,2013-05-01 10:42:00,
2013-05-01 05:52:00,55.0,50.0,-100.00,NW,310,9.0,15.0,84,0.00,,,-99.99,,2013-05-01 10:52:00,
2013-05-01 06:02:00,55.0,50.0,-100.00,NW,315,7.0,14.0,84,0.00,,,-99.99,,2013-05-01 11:02:00,
2013-05-01 06:11:00,54.0,50.0,-100.00,NW,310,7.0,11.0,83,0.00,,,-99.99,,2013-05-01 11:11:00,
2013-05-01 06:22:00,54.0,49.0,-100.00,WNW,300,7.0,10.0,83,0.00,,,-99.99,,2013-05-01 11:22:00,
2013-05-01 06:32:00,54.0,49.0,-100.00,NW,315,6.0,10.0,82,0.00,,,-99.99,,2013-05-01 11:32:00,
2013-05-01 06:42:00,54.0,49.0,-100.00,NW,305,5.0,10.0,82,0.00,,,-99.99,,2013-05-01 11:42:00,
2013-05-01 06:51:00,54.0,49.0,-100.00,NW,305,5.0,6.0,81,0.00,,,-99.99,,2013-05-01 11:51:00,
2013-05-01 07:01:00,54.0,49.0,-100.00,NW,305,4.0,7.0,81,0.00,,,-99.99,,2013-05-01 12:01:00,
2013-05-01 07:11:00,55.0,49.0,-100.00,WNW,300,5.0,7.0,80,0.00,,,-99.99,,2013-05-01 12:11:00,
2013-05-01 07:21:00,55.0,49.0,-100.00,NW,310,6.0,7.0,79,0.00,,,-99.99,,2013-05-01 12:21:00,
2013-05-01 07:31:00,56.0,49.0,-100.00,NW,315,6.0,9.0,75,0.00,,,-99.99,,2013-05-01 12:31:00,
2013-05-01 07:41:00,56.0,49.0,-100.00,NW,315,6.0,9.0,75,0.00,,,-99.99,,2013-05-01 12:41:00,
2013-05-01 07:51:00,58.0,49.0,-100.00,NW,325,7.0,11.0,72,0.00,,,-99.99,,2013-05-01 12:51:00,
2013-05-01 08:01:00,58.0,49.0,-100.00,NW,325,7.0,11.0,72,0.00,,,-99.99,,2013-05-01 13:01:00,
2013-05-01 08:11:00,59.0,49.0,-100.00,NNW,335,6.0,10.0,71,0.00,,,-99.99,,2013-05-01 13:11:00,
2013-05-01 08:21:00,59.0,49.0,-100.00,North,0,7.0,12.0,69,0.00,,,-99.99,,2013-05-01 13:21:00,
2013-05-01 08:32:00,59.0,49.0,-100.00,North,5,13.0,16.0,69,0.00,,,-99.99,,2013-05-01 13:32:00,
2013-05-01 08:42:00,59.0,49.0,-100.00,North,5,13.0,16.0,69,0.00,,,-99.99,,2013-05-01 13:42:00,
2013-05-01 08:52:00,60.0,50.0,-100.00,NW,315,9.0,16.0,69,0.00,,,-99.99,,2013-05-01 13:52:00,
2013-05-01 09:02:00,60.0,50.0,-100.00,NW,315,9.0,16.0,69,0.00,,,-99.99,,2013-05-01 14:02:00,
2013-05-01 09:11:00,60.0,50.0,-100.00,NNW,340,8.0,17.0,68,0.00,,,-99.99,,2013-05-01 14:11:00,
2013-05-01 09:21:00,61.0,50.0,-100.00,North,355,7.0,10.0,66,0.00,,,-99.99,,2013-05-01 14:21:00,
2013-05-01 09:32:00,62.0,50.0,-100.00,North,5,10.0,15.0,65,0.00,,,-99.99,,2013-05-01 14:32:00,
2013-05-01 09:41:00,62.0,50.0,-100.00,North,5,10.0,15.0,65,0.00,,,-99.99,,2013-05-01 14:41:00,
2013-05-01 09:51:00,63.0,51.0,-100.00,North,0,10.0,16.0,63,0.00,,,-99.99,,2013-05-01 14:51:00,
2013-05-01 10:01:00,63.0,51.0,-100.00,North,0,10.0,16.0,63,0.00,,,-99.99,,2013-05-01 15:01:00,
2013-05-01 10:11:00,64.0,51.0,-100.00,NNE,15,7.0,12.0,62,0.00,,,-99.99,,2013-05-01 15:11:00,
2013-05-01 10:21:00,65.0,51.0,-100.00,North,5,7.0,13.0,61,0.00,,,-99.99,,2013-05-01 15:21:00,
2013-05-01 10:33:00,66.0,51.0,-100.00,NNE,25,5.0,11.0,58,0.00,,,-99.99,,2013-05-01 15:33:00,
2013-05-01 10:42:00,66.0,51.0,-100.00,NNE,25,5.0,11.0,58,0.00,,,-99.99,,2013-05-01 15:42:00,
2013-05-01 10:53:00,68.0,51.0,-100.00,NNE,20,3.0,8.0,55,0.00,,,-99.99,,2013-05-01 15:53:00,
2013-05-01 11:03:00,68.0,51.0,-100.00,NNE,20,3.0,8.0,55,0.00,,,-99.99,,2013-05-01 16:03:00,
2013-05-01 11:12:00,68.0,51.0,-100.00,North,5,3.0,10.0,54,0.00,,,-99.99,,2013-05-01 16:12:00,
2013-05-01 11:22:00,69.0,52.0,-100.00,North,10,3.0,7.0,54,0.00,,,-99.99,,2013-05-01 16:22:00,
2013-05-01 11:32:00,71.0,52.0,-100.00,NNW,335,3.0,7.0,51,0.00,,,-99.99,,2013-05-01 16:32:00,
2013-05-01 11:42:00,71.0,52.0,-100.00,NNW,335,3.0,7.0,51,0.00,,,-99.99,,2013-05-01 16:42:00,
2013-05-01 11:53:00,71.0,52.0,-100.00,North,10,5.0,9.0,50,0.00,,,-99.99,,2013-05-01 16:53:00,
2013-05-01 12:02:00,71.0,52.0,-100.00,North,10,5.0,9.0,50,0.00,,,-99.99,,2013-05-01 17:02:00,
2013-05-01 12:12:00,71.0,52.0,-100.00,North,5,4.0,8.0,50,0.00,,,-99.99,,2013-05-01 17:12:00,
2013-05-01 12:21:00,72.0,52.0,-100.00,North,5,4.0,7.0,49,0.00,,,-99.99,,2013-05-01 17:21:00,
2013-05-01 12:32:00,74.0,54.0,-100.00,NW,315,5.0,7.0,50,0.00,,,-99.99,,2013-05-01 17:32:00,
2013-05-01 12:42:00,74.0,54.0,-100.00,NW,315,5.0,7.0,50,0.00,,,-99.99,,2013-05-01 17:42:00,
2013-05-01 12:52:00,74.0,53.0,-100.00,NW,310,6.0,8.0,48,0.00,,,-99.99,,2013-05-01 17:52:00,
2013-05-01 13:01:00,74.0,53.0,-100.00,NW,310,6.0,8.0,48,0.00,,,-99.99,,2013-05-01 18:01:00,
2013-05-01 13:11:00,74.0,53.0,-100.00,WSW,255,4.0,10.0,48,0.00,,,-99.99,,2013-05-01 18:11:00,
2013-05-01 13:22:00,74.0,53.0,-100.00,WSW,255,4.0,10.0,48,0.00,,,-99.99,,2013-05-01 18:22:00,
2013-05-01 13:32:00,75.0,54.0,-100.00,NW,325,6.0,12.0,47,0.00,,,-99.99,,2013-05-01 18:32:00,
2013-05-01 13:41:00,75.0,54.0,-100.00,NW,325,6.0,12.0,47,0.00,,,-99.99,,2013-05-01 18:41:00,
2013-05-01 13:52:00,75.0,54.0,-100.00,NW,325,6.0,12.0,47,0.00,,,-99.99,,2013-05-01 18:52:00,
2013-05-01 14:02:00,75.0,54.0,-100.00,NW,325,6.0,12.0,47,0.00,,,-99.99,,2013-05-01 19:02:00,
2013-05-01 14:11:00,75.0,54.0,-100.00,NW,325,6.0,12.0,47,0.00,,,-99.99,,2013-05-01 19:11:00,
2013-05-01 16:22:00,78.0,54.0,-100.00,NNW,330,7.0,13.0,43,0.00,,,-99.99,,2013-05-01 21:22:00,
2013-05-01 16:32:00,78.0,54.0,-100.00,NW,310,10.0,12.0,43,0.00,,,-99.99,,2013-05-01 21:32:00,
2013-05-01 16:43:00,78.0,54.0,-100.00,NW,310,10.0,12.0,43,0.00,,,-99.99,,2013-05-01 21:43:00,
2013-05-01 16:53:00,77.0,52.0,-100.00,North,0,11.0,17.0,42,0.00,,,-99.99,,2013-05-01 21:53:00,
2013-05-01 17:03:00,77.0,52.0,-100.00,North,0,11.0,17.0,42,0.00,,,-99.99,,2013-05-01 22:03:00,
2013-05-01 17:12:00,77.0,52.0,-100.00,NNW,330,11.0,21.0,41,0.00,,,-99.99,,2013-05-01 22:12:00,
2013-05-01 17:23:00,76.0,51.0,-100.00,NNW,345,14.0,22.0,41,0.00,,,-99.99,,2013-05-01 22:23:00,
2013-05-01 17:33:00,73.0,49.0,-100.00,NNW,335,19.0,28.0,42,0.00,,,-99.99,,2013-05-01 22:33:00,
2013-05-01 17:42:00,73.0,49.0,-100.00,NNW,335,19.0,28.0,42,0.00,,,-99.99,,2013-05-01 22:42:00,
2013-05-01 17:52:00,72.0,49.0,-100.00,NNW,335,15.0,26.0,43,0.00,,,-99.99,,2013-05-01 22:52:00,
2013-05-01 18:02:00,72.0,49.0,-100.00,NNW,335,15.0,26.0,43,0.00,,,-99.99,,2013-05-01 23:02:00,
2013-05-01 18:11:00,69.0,47.0,-100.00,NW,315,22.0,33.0,45,0.01,,,-99.99,,2013-05-01 23:11:00,
2013-05-01 18:21:00,66.0,45.0,-100.00,NW,320,22.0,34.0,47,0.01,,,-99.99,,2013-05-01 23:21:00,
2013-05-01 18:32:00,63.0,44.0,-100.00,NW,320,20.0,34.0,49,0.00,,,-99.99,,2013-05-01 23:32:00,
2013-05-01 18:42:00,63.0,44.0,-100.00,NW,320,20.0,34.0,49,0.00,,,-99.99,,2013-05-01 23:42:00,
2013-05-01 18:52:00,61.0,43.0,-100.00,NNW,335,19.0,35.0,52,0.00,,,-99.99,,2013-05-01 23:52:00,
2013-05-01 19:01:00,61.0,43.0,-100.00,NNW,335,19.0,35.0,52,0.00,,,-99.99,,2013-05-02 00:01:00,
2013-05-01 19:11:00,60.0,43.0,-100.00,NNW,335,20.0,30.0,53,0.00,,,-99.99,,2013-05-02 00:11:00,
2013-05-01 19:21:00,58.0,42.0,-100.00,NNW,330,20.0,34.0,55,0.00,,,-99.99,,2013-05-02 00:21:00,
2013-05-01 19:32:00,56.0,42.0,-100.00,NNW,340,24.0,31.0,58,0.00,,,-99.99,,2013-05-02 00:32:00,
2013-05-01 19:41:00,56.0,42.0,-100.00,NNW,340,24.0,31.0,58,0.00,,,-99.99,,2013-05-02 00:41:00,
2013-05-01 19:52:00,54.0,42.0,-100.00,NNW,340,20.0,27.0,62,0.00,,,-99.99,,2013-05-02 00:52:00,
2013-05-01 20:01:00,54.0,42.0,-100.00,NNW,340,20.0,27.0,62,0.00,,,-99.99,,2013-05-02 01:01:00,
2013-05-01 20:11:00,52.0,41.0,-100.00,NNW,340,20.0,29.0,65,0.00,,,-99.99,,2013-05-02 01:11:00,
2013-05-01 20:21:00,51.0,41.0,-100.00,NNW,340,17.0,29.0,67,0.00,,,-99.99,,2013-05-02 01:21:00,
2013-05-01 20:32:00,50.0,41.0,-100.00,NW,325,12.0,27.0,70,0.00,,,-99.99,,2013-05-02 01:32:00,
2013-05-01 20:42:00,50.0,41.0,-100.00,NW,325,12.0,27.0,70,0.00,,,-99.99,,2013-05-02 01:42:00,
2013-05-01 20:52:00,50.0,41.0,-100.00,NNW,340,11.0,27.0,71,0.00,,,-99.99,,2013-05-02 01:52:00,
2013-05-01 21:02:00,50.0,41.0,-100.00,NNW,340,11.0,27.0,71,0.00,,,-99.99,,2013-05-02 02:02:00,
2013-05-01 21:11:00,50.0,41.0,-100.00,NNW,335,11.0,20.0,72,0.00,,,-99.99,,2013-05-02 02:11:00,
2013-05-01 21:21:00,49.0,41.0,-100.00,NNW,335,15.0,24.0,72,0.00,,,-99.99,,2013-05-02 02:21:00,
2013-05-01 21:32:00,49.0,40.0,-100.00,NNW,335,15.0,23.0,72,0.00,,,-99.99,,2013-05-02 02:32:00,
2013-05-01 21:42:00,49.0,40.0,-100.00,NNW,335,15.0,23.0,72,0.00,,,-99.99,,2013-05-02 02:42:00,
2013-05-01 21:51:00,49.0,40.0,-100.00,NNW,335,15.0,23.0,72,0.00,,,-99.99,,2013-05-02 02:51:00,
2013-05-01 22:01:00,49.0,40.0,-100.00,North,0,15.0,24.0,73,0.00,,,-99.99,,2013-05-02 03:01:00,
2013-05-01 22:11:00,48.0,40.0,-100.00,NNW,345,14.0,26.0,73,0.00,,,-99.99,,2013-05-02 03:11:00,
2013-05-01 22:22:00,48.0,40.0,-100.00,NNW,345,12.0,20.0,73,0.00,,,-99.99,,2013-05-02 03:22:00,
2013-05-01 22:32:00,47.0,39.0,-100.00,NNW,340,17.0,26.0,73,0.00,,,-99.99,,2013-05-02 03:32:00,
2013-05-01 22:42:00,47.0,39.0,-100.00,NNW,340,17.0,26.0,73,0.00,,,-99.99,,2013-05-02 03:42:00,
2013-05-01 22:52:00,47.0,39.0,-100.00,NNW,335,14.0,23.0,73,0.00,,,-99.99,,2013-05-02 03:52:00,
2013-05-01 23:03:00,47.0,39.0,-100.00,NNW,335,14.0,23.0,73,0.00,,,-99.99,,2013-05-02 04:03:00,
2013-05-01 23:12:00,47.0,38.0,-100.00,NNW,340,17.0,26.0,73,0.00,,,-99.99,,2013-05-02 04:12:00,
2013-05-01 23:23:00,46.0,38.0,-100.00,NNW,340,17.0,26.0,73,0.00,,,-99.99,,2013-05-02 04:23:00,
2013-05-01 23:33:00,46.0,38.0,-100.00,NNW,345,14.0,24.0,74,0.00,,,-99.99,,2013-05-02 04:33:00,
2013-05-01 23:42:00,46.0,38.0,-100.00,NNW,345,14.0,24.0,74,0.00,,,-99.99,,2013-05-02 04:42:00,
2013-05-01 23:52:00,45.0,38.0,-100.00,NNW,345,16.0,25.0,74,0.00,,,-99.99,,2013-05-02 04:52:00,